createdAt,value
2019-01-28T00:00:11.871Z,30.40
2019-01-28T00:02:44.981Z,32.23
2019-01-28T00:05:18.039Z,31.17
2019-01-28T00:07:51.289Z,27.37
2019-01-28T00:10:24.310Z,29.67
2019-01-28T00:12:57.699Z,29.47
2019-01-28T00:15:32.296Z,27.33
2019-01-28T00:18:05.558Z,29.30
2019-01-28T00:20:38.611Z,28.17
2019-01-28T00:23:13.229Z,29.03
2019-01-28T00:25:46.641Z,29.80
2019-01-28T00:28:19.595Z,27.93
2019-01-28T00:30:52.980Z,26.70
2019-01-28T00:33:26.356Z,28.57
2019-01-28T00:35:59.469Z,27.37
2019-01-28T00:38:32.606Z,28.60
2019-01-28T00:41:05.962Z,28.73
2019-01-28T00:43:39.121Z,27.73
2019-01-28T00:46:12.051Z,26.90
2019-01-28T00:48:44.935Z,26.53
2019-01-28T00:51:19.237Z,26.73
2019-01-28T00:53:54.621Z,27.83
2019-01-28T00:56:27.872Z,25.67
2019-01-28T00:59:01.595Z,25.70
2019-01-28T01:01:34.902Z,27.27
2019-01-28T01:04:08.373Z,25.43
2019-01-28T01:06:42.512Z,26.93
2019-01-28T01:09:15.993Z,26.47
2019-01-28T01:11:49.036Z,27.27
2019-01-28T01:14:22.024Z,27.60
2019-01-28T01:16:55.184Z,23.33
2019-01-28T01:19:28.295Z,25.63
2019-01-28T01:22:01.451Z,24.83
2019-01-28T01:24:34.571Z,25.30
2019-01-28T01:27:08.843Z,24.40
2019-01-28T01:29:42.102Z,24.60
2019-01-28T01:32:15.556Z,23.50
2019-01-28T01:34:48.819Z,26.27
2019-01-28T01:37:21.867Z,23.87
2019-01-28T01:39:54.978Z,26.87
2019-01-28T01:42:27.993Z,26.07
2019-01-28T01:45:00.929Z,24.60
2019-01-28T01:47:33.815Z,24.03
2019-01-28T01:50:09.036Z,25.50
2019-01-28T01:52:42.080Z,24.47
2019-01-28T01:55:17.034Z,21.87
2019-01-28T01:57:50.146Z,23.87
2019-01-28T02:00:24.498Z,23.63
2019-01-28T02:02:59.318Z,22.50
2019-01-28T02:05:32.299Z,22.33
2019-01-28T02:08:05.559Z,23.83
2019-01-28T02:10:38.507Z,23.50
2019-01-28T02:13:11.683Z,22.73
2019-01-28T02:15:44.992Z,23.37
2019-01-28T02:18:19.209Z,23.67
2019-01-28T02:20:52.342Z,22.27
2019-01-28T02:23:25.522Z,22.13
2019-01-28T02:25:58.766Z,25.33
2019-01-28T02:28:31.727Z,22.37
2019-01-28T02:31:04.767Z,24.67
2019-01-28T02:33:38.535Z,22.73
2019-01-28T02:36:11.984Z,24.10
2019-01-28T02:38:45.035Z,25.47
2019-01-28T02:41:17.908Z,22.10
2019-01-28T02:43:51.349Z,23.30
2019-01-28T02:46:24.470Z,24.97
2019-01-28T02:48:59.081Z,20.63
2019-01-28T02:51:32.188Z,24.93
2019-01-28T02:54:05.286Z,24.87
2019-01-28T02:56:38.805Z,37.93
2019-01-28T02:59:11.920Z,31.53
2019-01-28T03:01:45.434Z,25.53
2019-01-28T03:04:18.855Z,26.33
2019-01-28T03:06:52.812Z,24.53
2019-01-28T03:09:26.738Z,24.63
2019-01-28T03:11:59.957Z,23.90
2019-01-28T03:14:33.281Z,23.43
2019-01-28T03:17:10.162Z,24.10
2019-01-28T03:19:44.095Z,23.17
2019-01-28T03:22:18.243Z,23.60
2019-01-28T03:24:51.632Z,24.73
2019-01-28T03:27:24.582Z,25.80
2019-01-28T03:29:57.985Z,24.43
2019-01-28T03:32:31.029Z,24.60
2019-01-28T03:35:04.330Z,24.73
2019-01-28T03:37:39.019Z,23.20
2019-01-28T03:40:15.654Z,25.40
2019-01-28T03:42:48.890Z,21.50
2019-01-28T03:45:23.034Z,25.87
2019-01-28T03:47:56.161Z,25.80
2019-01-28T03:50:29.501Z,25.10
2019-01-28T03:53:02.681Z,21.50
2019-01-28T03:55:36.591Z,26.33
2019-01-28T03:58:09.924Z,24.67
2019-01-28T04:00:43.327Z,27.23
2019-01-28T04:03:16.311Z,29.87
2019-01-28T04:05:49.718Z,31.57
2019-01-28T04:08:22.730Z,29.50
2019-01-28T04:10:55.875Z,28.53
2019-01-28T04:13:28.952Z,40.33
2019-01-28T04:16:01.955Z,28.43
2019-01-28T04:18:35.065Z,30.60
2019-01-28T04:21:07.836Z,30.07
2019-01-28T04:23:41.209Z,29.80
2019-01-28T04:26:14.817Z,33.30
2019-01-28T04:28:48.019Z,33.97
2019-01-28T04:31:21.546Z,33.60
2019-01-28T04:33:54.800Z,30.73
2019-01-28T04:36:28.328Z,33.67
2019-01-28T04:39:01.707Z,33.40
2019-01-28T04:41:35.153Z,33.30
2019-01-28T04:44:08.500Z,33.67
2019-01-28T04:46:41.868Z,33.30
2019-01-28T04:49:14.841Z,33.87
2019-01-28T04:51:48.200Z,33.57
2019-01-28T04:54:21.444Z,30.80
2019-01-28T04:56:55.059Z,31.30
2019-01-28T04:59:29.761Z,30.67
2019-01-28T05:02:03.149Z,30.83
2019-01-28T05:04:36.728Z,31.53
2019-01-28T05:07:10.306Z,30.03
2019-01-28T05:09:43.505Z,31.17
2019-01-28T05:12:16.877Z,29.97
2019-01-28T05:14:50.294Z,32.10
2019-01-28T05:17:23.632Z,35.17
2019-01-28T05:19:57.072Z,36.20
2019-01-28T05:22:30.620Z,31.40
2019-01-28T05:25:04.134Z,31.80
2019-01-28T05:27:37.465Z,30.67
2019-01-28T05:30:17.466Z,43.03
2019-01-28T05:32:50.877Z,39.77
2019-01-28T05:35:25.470Z,30.70
2019-01-28T05:37:58.850Z,28.00
2019-01-28T05:40:32.140Z,28.73
2019-01-28T05:43:07.060Z,30.70
2019-01-28T05:45:40.099Z,44.10
2019-01-28T05:48:13.311Z,34.10
2019-01-28T05:50:46.338Z,34.73
2019-01-28T05:53:19.644Z,34.60
2019-01-28T05:55:53.314Z,31.63
2019-01-28T05:58:26.354Z,34.23
2019-01-28T06:00:59.657Z,44.83
2019-01-28T06:03:32.956Z,34.97
2019-01-28T06:06:06.359Z,34.00
2019-01-28T06:08:39.321Z,31.67
2019-01-28T06:11:12.639Z,34.53
2019-01-28T06:13:45.670Z,31.33
2019-01-28T06:16:18.498Z,31.17
2019-01-28T06:18:51.668Z,36.87
2019-01-28T06:21:25.748Z,34.00
2019-01-28T06:23:58.984Z,37.23
2019-01-28T06:26:32.107Z,36.00
2019-01-28T06:29:05.606Z,39.70
2019-01-28T06:31:39.364Z,43.17
2019-01-28T06:34:12.489Z,41.83
2019-01-28T06:36:45.596Z,47.47
2019-01-28T06:39:18.857Z,47.47
2019-01-28T06:41:51.801Z,36.83
2019-01-28T06:44:25.032Z,39.83
2019-01-28T06:46:58.311Z,34.60
2019-01-28T06:49:31.568Z,35.90
2019-01-28T06:52:04.928Z,35.67
2019-01-28T06:54:39.820Z,43.37
2019-01-28T06:57:13.096Z,39.27
2019-01-28T06:59:46.182Z,44.07
2019-01-28T07:02:19.379Z,41.20
2019-01-28T07:04:52.631Z,40.60
2019-01-28T07:07:25.993Z,39.60
2019-01-28T07:09:59.409Z,35.73
2019-01-28T07:12:32.297Z,39.87
2019-01-28T07:15:05.957Z,49.87
2019-01-28T07:17:39.152Z,62.57
2019-01-28T07:20:17.597Z,50.60
2019-01-28T07:22:50.929Z,52.77
2019-01-28T07:25:24.021Z,100.13
2019-01-28T07:27:57.373Z,112.07
2019-01-28T07:30:36.652Z,64.20
2019-01-28T07:33:09.952Z,62.67
2019-01-28T07:35:42.932Z,64.90
2019-01-28T07:38:16.095Z,74.10
2019-01-28T07:40:49.270Z,53.30
2019-01-28T07:43:22.331Z,54.43
2019-01-28T07:45:55.364Z,58.20
2019-01-28T07:48:29.838Z,51.53
2019-01-28T07:51:03.306Z,48.80
2019-01-28T07:53:36.664Z,42.30
2019-01-28T07:56:10.062Z,43.53
2019-01-28T07:58:43.470Z,42.13
2019-01-28T08:01:16.896Z,40.63
2019-01-28T08:03:50.384Z,43.77
2019-01-28T08:06:24.194Z,46.20
2019-01-28T08:08:57.513Z,45.83
2019-01-28T08:11:30.874Z,46.90
2019-01-28T08:14:04.206Z,47.77
2019-01-28T08:16:37.981Z,43.37
2019-01-28T08:19:11.801Z,37.40
2019-01-28T08:21:45.272Z,50.07
2019-01-28T08:24:18.397Z,53.73
2019-01-28T08:26:52.108Z,53.00
2019-01-28T08:29:25.488Z,50.00
2019-01-28T08:31:59.037Z,55.70
2019-01-28T08:34:34.252Z,49.10
2019-01-28T08:37:08.127Z,50.13
2019-01-28T08:39:42.873Z,49.13
2019-01-28T08:42:16.134Z,49.97
2019-01-28T08:44:49.716Z,50.57
2019-01-28T08:47:23.365Z,51.83
2019-01-28T08:49:56.654Z,56.60
2019-01-28T08:52:30.536Z,51.60
2019-01-28T08:55:05.325Z,61.27
2019-01-28T08:57:39.132Z,64.80
2019-01-28T09:00:24.859Z,57.40
2019-01-28T09:02:58.262Z,56.23
2019-01-28T09:05:31.763Z,56.90
2019-01-28T09:08:05.648Z,59.50
2019-01-28T09:10:39.618Z,58.10
2019-01-28T09:13:13.018Z,58.63
2019-01-28T09:15:46.275Z,57.30
2019-01-28T09:18:26.282Z,59.80
2019-01-28T09:20:55.195Z,63.77
2019-01-28T09:23:28.518Z,63.00
2019-01-28T09:26:02.052Z,64.67
2019-01-28T09:28:35.606Z,64.33
2019-01-28T09:31:09.282Z,61.07
2019-01-28T09:33:42.435Z,65.13
2019-01-28T09:36:15.891Z,62.13
2019-01-28T09:38:49.736Z,61.30
2019-01-28T09:41:22.852Z,59.67
2019-01-28T09:43:55.948Z,59.73
2019-01-28T09:46:29.266Z,56.93
2019-01-28T09:49:02.473Z,52.73
2019-01-28T09:51:35.965Z,48.80
2019-01-28T09:54:09.963Z,48.33
2019-01-28T09:56:43.797Z,42.73
2019-01-28T09:59:17.142Z,42.33
2019-01-28T10:01:50.422Z,37.80
2019-01-28T10:04:24.005Z,42.83
2019-01-28T10:06:57.369Z,32.53
2019-01-28T10:09:30.815Z,32.03
2019-01-28T10:12:04.096Z,30.80
2019-01-28T10:14:37.316Z,27.80
2019-01-28T10:17:10.857Z,27.93
2019-01-28T10:19:44.212Z,30.30
2019-01-28T10:22:17.651Z,27.20
2019-01-28T10:24:50.808Z,26.63
2019-01-28T10:27:24.224Z,22.80
2019-01-28T10:29:57.714Z,31.23
2019-01-28T10:32:35.932Z,24.30
2019-01-28T10:35:06.723Z,24.40
2019-01-28T10:37:40.499Z,20.67
2019-01-28T10:40:17.676Z,22.63
2019-01-28T10:42:51.049Z,21.60
2019-01-28T10:45:24.681Z,24.13
2019-01-28T10:48:00.742Z,22.67
2019-01-28T10:50:35.708Z,20.93
2019-01-28T10:53:09.685Z,23.67
2019-01-28T10:55:44.165Z,22.87
2019-01-28T10:58:17.622Z,25.03
2019-01-28T11:00:53.149Z,23.97
2019-01-28T11:03:28.085Z,25.83
2019-01-28T11:06:01.471Z,28.47
2019-01-28T11:08:36.284Z,27.97
2019-01-28T11:11:09.700Z,28.70
2019-01-28T11:13:42.763Z,29.27
2019-01-28T11:16:16.278Z,29.90
2019-01-28T11:18:57.375Z,30.27
2019-01-28T11:21:25.292Z,24.27
2019-01-28T11:23:58.854Z,23.90
2019-01-28T11:26:32.426Z,20.73
2019-01-28T11:29:05.869Z,23.43
2019-01-28T11:31:39.160Z,23.20
2019-01-28T11:34:13.020Z,20.40
2019-01-28T11:36:46.181Z,19.07
2019-01-28T11:39:19.588Z,19.43
2019-01-28T11:41:52.947Z,21.70
2019-01-28T11:44:26.415Z,19.57
2019-01-28T11:47:00.085Z,22.80
2019-01-28T11:49:33.677Z,20.63
2019-01-28T11:52:07.435Z,23.33
2019-01-28T11:54:40.827Z,19.97
2019-01-28T11:57:14.523Z,21.40
2019-01-28T11:59:48.130Z,30.13
2019-01-28T12:02:21.994Z,21.10
2019-01-28T12:04:55.852Z,26.40
2019-01-28T12:07:29.665Z,23.20
2019-01-28T12:10:03.165Z,20.63
2019-01-28T12:12:36.993Z,20.53
2019-01-28T12:15:12.700Z,24.50
2019-01-28T12:17:45.972Z,21.77
2019-01-28T12:20:20.145Z,23.17
2019-01-28T12:22:53.454Z,22.33
2019-01-28T12:25:27.015Z,33.63
2019-01-28T12:28:00.470Z,21.83
2019-01-28T12:30:34.439Z,22.33
2019-01-28T12:33:07.919Z,21.57
2019-01-28T12:35:41.389Z,21.23
2019-01-28T12:38:14.586Z,33.53
2019-01-28T12:40:48.336Z,40.73
2019-01-28T12:43:21.640Z,25.27
2019-01-28T12:45:54.872Z,23.33
2019-01-28T12:48:28.178Z,24.40
2019-01-28T12:51:01.575Z,30.17
2019-01-28T12:53:34.879Z,24.87
2019-01-28T12:56:08.233Z,25.10
2019-01-28T12:58:44.892Z,24.17
2019-01-28T13:01:18.420Z,24.77
2019-01-28T13:03:51.772Z,24.53
2019-01-28T13:06:25.663Z,23.93
2019-01-28T13:08:59.259Z,25.20
2019-01-28T13:11:32.599Z,22.50
2019-01-28T13:14:06.790Z,27.97
2019-01-28T13:16:40.136Z,31.53
2019-01-28T13:19:13.531Z,28.10
2019-01-28T13:21:47.385Z,28.73
2019-01-28T13:24:20.902Z,23.37
2019-01-28T13:26:54.261Z,23.90
2019-01-28T13:29:27.593Z,23.80
2019-01-28T13:32:01.306Z,24.30
2019-01-28T13:34:34.472Z,23.00
2019-01-28T13:37:27.701Z,23.33
2019-01-28T13:40:01.135Z,33.27
2019-01-28T13:42:34.450Z,26.93
2019-01-28T13:45:08.939Z,21.60
2019-01-28T13:47:42.313Z,25.90
2019-01-28T13:50:20.196Z,19.90
2019-01-28T13:52:54.969Z,20.33
2019-01-28T13:55:28.393Z,23.43
2019-01-28T13:58:01.871Z,24.20
2019-01-28T14:00:35.547Z,23.37
2019-01-28T14:03:09.569Z,22.87
2019-01-28T14:05:43.559Z,22.93
2019-01-28T14:08:17.239Z,24.93
2019-01-28T14:10:50.862Z,27.00
2019-01-28T14:13:24.573Z,25.97
2019-01-28T14:15:58.417Z,22.43
2019-01-28T14:18:32.485Z,24.30
2019-01-28T14:21:08.625Z,22.23
2019-01-28T14:23:44.612Z,19.40
2019-01-28T14:26:17.750Z,21.03
2019-01-28T14:28:51.402Z,20.63
2019-01-28T14:31:25.142Z,23.00
2019-01-28T14:33:58.400Z,23.03
2019-01-28T14:36:34.273Z,21.87
2019-01-28T14:39:13.663Z,23.53
2019-01-28T14:41:49.985Z,23.07
2019-01-28T14:44:23.749Z,23.90
2019-01-28T14:46:57.784Z,20.17
2019-01-28T14:49:32.464Z,20.33
2019-01-28T14:52:06.681Z,22.83
2019-01-28T14:54:40.410Z,19.53
2019-01-28T14:57:14.250Z,26.97
2019-01-28T14:59:48.487Z,20.07
2019-01-28T15:02:22.355Z,25.03
2019-01-28T15:04:56.498Z,37.40
2019-01-28T15:07:31.431Z,19.23
2019-01-28T15:10:04.899Z,21.13
2019-01-28T15:12:44.244Z,30.57
2019-01-28T15:15:17.510Z,35.50
2019-01-28T15:17:51.447Z,32.40
2019-01-28T15:20:25.138Z,26.50
2019-01-28T15:23:01.493Z,51.13
2019-01-28T15:25:34.707Z,28.43
2019-01-28T15:28:11.388Z,21.90
2019-01-28T15:30:45.612Z,19.30
2019-01-28T15:33:19.696Z,19.43
2019-01-28T15:35:53.327Z,17.67
2019-01-28T15:38:27.141Z,21.60
2019-01-28T15:41:01.088Z,29.47
2019-01-28T15:43:34.849Z,20.83
2019-01-28T15:46:08.215Z,19.57
2019-01-28T15:48:41.749Z,34.40
2019-01-28T15:51:18.108Z,32.17
2019-01-28T15:53:52.000Z,26.20
2019-01-28T15:56:27.817Z,22.20
2019-01-28T15:59:01.225Z,26.00
2019-01-28T16:01:35.019Z,27.70
2019-01-28T16:04:08.735Z,29.10
2019-01-28T16:06:42.609Z,26.43
2019-01-28T16:09:16.434Z,23.40
2019-01-28T16:11:49.921Z,25.70
2019-01-28T16:14:23.535Z,41.23
2019-01-28T16:16:57.016Z,29.47
2019-01-28T16:19:32.038Z,29.03
2019-01-28T16:22:06.350Z,30.97
2019-01-28T16:24:40.692Z,23.50
2019-01-28T16:27:18.112Z,25.30
2019-01-28T16:29:55.518Z,26.57
2019-01-28T16:32:34.150Z,32.13
2019-01-28T16:35:11.002Z,26.97
2019-01-28T16:37:44.959Z,24.60
2019-01-28T16:40:20.797Z,51.60
2019-01-28T16:42:54.621Z,40.90
2019-01-28T16:45:30.728Z,28.50
2019-01-28T16:48:07.965Z,30.97
2019-01-28T16:50:41.642Z,41.77
2019-01-28T16:53:16.015Z,34.53
2019-01-28T16:55:49.925Z,29.07
2019-01-28T16:58:24.476Z,29.57
2019-01-28T17:01:01.603Z,33.03
2019-01-28T17:03:34.921Z,25.63
2019-01-28T17:06:08.798Z,50.10
2019-01-28T17:08:42.431Z,42.10
2019-01-28T17:11:16.195Z,36.73
2019-01-28T17:13:49.737Z,36.40
2019-01-28T17:16:24.257Z,74.07
2019-01-28T17:18:57.636Z,41.67
2019-01-28T17:21:30.804Z,35.77
2019-01-28T17:24:04.317Z,37.67
2019-01-28T17:26:57.961Z,36.30
2019-01-28T17:29:31.472Z,35.90
2019-01-28T17:32:04.768Z,32.80
2019-01-28T17:34:38.532Z,44.20
2019-01-28T17:37:13.257Z,33.87
2019-01-28T17:39:47.158Z,31.40
2019-01-28T17:42:20.623Z,27.87
2019-01-28T17:44:53.669Z,26.03
2019-01-28T17:47:27.307Z,25.80
2019-01-28T17:50:01.472Z,26.73
2019-01-28T17:52:34.956Z,25.53
2019-01-28T17:55:09.057Z,25.60
2019-01-28T17:57:42.652Z,27.00
2019-01-28T18:00:30.009Z,26.87
2019-01-28T18:03:05.967Z,26.43
2019-01-28T18:05:41.925Z,27.83
2019-01-28T18:08:15.988Z,27.07
2019-01-28T18:10:50.096Z,28.43
2019-01-28T18:13:23.352Z,32.80
2019-01-28T18:15:56.489Z,31.23
2019-01-28T18:18:30.118Z,39.87
2019-01-28T18:21:03.570Z,51.63
2019-01-28T18:23:48.738Z,28.17
2019-01-28T18:26:21.840Z,23.50
2019-01-28T18:28:54.712Z,24.33
2019-01-28T18:31:27.924Z,28.37
2019-01-28T18:34:01.202Z,28.33
2019-01-28T18:36:34.221Z,29.53
2019-01-28T18:39:11.273Z,32.97
2019-01-28T18:41:44.322Z,38.17
2019-01-28T18:44:17.727Z,36.50
2019-01-28T18:46:51.258Z,36.43
2019-01-28T18:49:24.346Z,33.47
2019-01-28T18:51:57.419Z,43.60
2019-01-28T18:54:30.554Z,44.43
2019-01-28T18:57:03.367Z,37.77
2019-01-28T18:59:37.272Z,37.53
2019-01-28T19:02:10.638Z,33.70
2019-01-28T19:04:43.868Z,38.10
2019-01-28T19:07:42.015Z,37.37
2019-01-28T19:10:34.768Z,35.73
2019-01-28T19:13:14.519Z,44.13
2019-01-28T19:16:09.537Z,40.13
2019-01-28T19:18:49.562Z,33.63
2019-01-28T19:21:37.091Z,34.40
2019-01-28T19:24:10.271Z,37.60
2019-01-28T19:26:43.384Z,65.23
2019-01-28T19:29:17.001Z,86.50
2019-01-28T19:31:50.380Z,52.30
2019-01-28T19:34:23.620Z,58.53
2019-01-28T19:36:57.056Z,75.37
2019-01-28T19:39:31.120Z,42.20
2019-01-28T19:42:04.407Z,39.53
2019-01-28T19:44:37.593Z,35.07
2019-01-28T19:47:11.379Z,27.50
2019-01-28T19:49:44.520Z,28.83
2019-01-28T19:52:17.716Z,33.43
2019-01-28T19:54:51.074Z,35.90
2019-01-28T19:57:24.187Z,36.17
2019-01-28T19:59:57.104Z,36.83
2019-01-28T20:02:30.099Z,31.50
2019-01-28T20:05:03.433Z,32.13
2019-01-28T20:07:36.503Z,40.17
2019-01-28T20:10:10.490Z,36.30
2019-01-28T20:12:44.044Z,31.47
2019-01-28T20:15:19.120Z,30.40
2019-01-28T20:17:52.451Z,33.27
2019-01-28T20:20:25.797Z,33.37
2019-01-28T20:22:59.351Z,53.60
2019-01-28T20:25:32.622Z,36.47
2019-01-28T20:28:05.884Z,36.23
2019-01-28T20:30:38.996Z,33.60
2019-01-28T20:33:12.559Z,39.83
2019-01-28T20:35:45.564Z,28.53
2019-01-28T20:38:18.848Z,35.70
2019-01-28T20:40:52.259Z,30.67
2019-01-28T20:43:25.584Z,33.67
2019-01-28T20:45:59.034Z,28.60
2019-01-28T20:48:32.169Z,28.80
2019-01-28T20:51:05.736Z,28.27
2019-01-28T20:53:38.999Z,33.30
2019-01-28T20:56:12.964Z,27.13
2019-01-28T20:58:48.140Z,29.00
2019-01-28T21:01:21.573Z,28.27
2019-01-28T21:03:55.031Z,32.47
2019-01-28T21:06:28.362Z,32.30
2019-01-28T21:09:01.876Z,34.93
2019-01-28T21:11:35.410Z,34.00
2019-01-28T21:14:08.723Z,38.73
2019-01-28T21:16:42.392Z,35.33
2019-01-28T21:19:15.626Z,33.67
2019-01-28T21:21:48.755Z,34.13
2019-01-28T21:24:21.938Z,39.80
2019-01-28T21:26:55.286Z,37.43
2019-01-28T21:29:28.564Z,39.77
2019-01-28T21:32:03.474Z,34.07
2019-01-28T21:34:36.435Z,24.40
2019-01-28T21:37:22.513Z,26.27
2019-01-28T21:39:56.677Z,16.50
2019-01-28T21:42:30.607Z,30.83
2019-01-28T21:45:05.857Z,23.13
2019-01-28T21:47:39.019Z,24.33
2019-01-28T21:50:12.761Z,21.10
2019-01-28T21:52:45.831Z,20.20
2019-01-28T21:55:19.168Z,22.40
2019-01-28T21:57:52.426Z,24.10
2019-01-28T22:00:26.116Z,30.53
2019-01-28T22:02:59.330Z,36.50
2019-01-28T22:05:32.569Z,30.47
2019-01-28T22:08:05.561Z,25.57
2019-01-28T22:10:38.987Z,54.27
2019-01-28T22:13:12.180Z,31.40
2019-01-28T22:15:45.177Z,34.83
2019-01-28T22:18:18.473Z,32.73
2019-01-28T22:20:51.835Z,31.70
2019-01-28T22:23:24.852Z,31.73
2019-01-28T22:25:57.826Z,29.70
2019-01-28T22:28:30.920Z,30.13
2019-01-28T22:31:04.067Z,30.93
2019-01-28T22:33:37.317Z,39.93
2019-01-28T22:36:10.732Z,31.87
2019-01-28T22:38:44.995Z,31.93
2019-01-28T22:41:18.687Z,38.57
2019-01-28T22:43:51.649Z,27.40
2019-01-28T22:46:24.722Z,27.93
2019-01-28T22:48:57.781Z,27.57
2019-01-28T22:51:30.777Z,33.10
2019-01-28T22:54:03.843Z,30.23
2019-01-28T22:56:37.286Z,29.33
2019-01-28T22:59:10.275Z,26.50
2019-01-28T23:01:43.406Z,34.47
2019-01-28T23:04:16.819Z,40.03
2019-01-28T23:06:49.939Z,35.13
2019-01-28T23:09:23.002Z,28.70
2019-01-28T23:11:55.709Z,28.20
2019-01-28T23:14:28.745Z,30.77
2019-01-28T23:17:01.887Z,30.73
2019-01-28T23:19:35.825Z,30.13
2019-01-28T23:22:16.292Z,78.97
2019-01-28T23:24:44.781Z,31.23
2019-01-28T23:27:17.896Z,31.87
2019-01-28T23:29:51.083Z,37.57
2019-01-28T23:32:24.161Z,31.20
2019-01-28T23:34:58.188Z,37.80
2019-01-28T23:37:31.269Z,39.33
2019-01-28T23:40:04.772Z,30.00
2019-01-28T23:42:37.937Z,29.67
2019-01-28T23:45:11.635Z,28.47
2019-01-28T23:47:45.127Z,24.93
2019-01-28T23:50:18.286Z,30.53
2019-01-28T23:52:51.369Z,28.03
2019-01-28T23:55:24.301Z,29.70
2019-01-28T23:57:58.747Z,31.60
